Time;durP1;ratioP1;P1;durP2;ratioP2;P2;SDS_P1;SDS_P2;PMS_P1;PMS_P2;Temp;Humidity;BMP_temperature;BMP_pressure;BME280_temperature;BME280_humidity;BME280_pressure;Samples;Min_cycle;Max_cycle;Signal;HPM_P1;HPM_P2
2024/03/25 00:02:16;;;;;;;24.13;5.18;;;;;;;4.33;100.00;99284.38;10162693;28;20099;-78
2024/03/25 00:07:16;;;;;;;17.95;4.40;;;;;;;4.22;100.00;99292.28;10165288;28;20058;-78
2024/03/25 00:12:23;;;;;;;23.58;4.32;;;;;;;4.32;100.00;99286.22;10147884;28;20055;-78
2024/03/25 00:17:24;;;;;;;24.98;4.75;;;;;;;3.90;100.00;99304.28;10161608;28;20090;-78
2024/03/25 00:22:25;;;;;;;18.80;4.72;;;;;;;4.01;100.00;99308.84;10136540;28;20067;-78
2024/03/25 00:27:26;;;;;;;13.27;4.13;;;;;;;3.73;100.00;99304.63;10144216;28;20054;-78
2024/03/25 00:32:27;;;;;;;15.30;4.18;;;;;;;4.19;100.00;99301.34;10173832;28;20079;-78
2024/03/25 00:37:28;;;;;;;18.35;3.42;;;;;;;3.71;100.00;99299.41;10157110;28;21234;-78
2024/03/25 00:42:29;;;;;;;14.75;4.47;;;;;;;3.85;100.00;99311.72;10158988;28;20094;-78
2024/03/25 00:47:29;;;;;;;18.48;3.83;;;;;;;4.15;100.00;99318.47;10155657;28;20052;-79
2024/03/25 00:52:30;;;;;;;13.38;3.72;;;;;;;4.18;100.00;99321.75;10134529;28;20103;-78
2024/03/25 00:57:32;;;;;;;15.88;5.00;;;;;;;3.82;100.00;99329.69;10178468;28;20178;-79
2024/03/25 01:02:33;;;;;;;17.52;3.80;;;;;;;4.08;100.00;99328.69;10141361;28;20463;-78
2024/03/25 01:07:34;;;;;;;15.90;3.83;;;;;;;4.04;100.00;99329.88;10142219;28;20056;-78
2024/03/25 01:12:35;;;;;;;20.33;4.35;;;;;;;3.82;100.00;99337.66;10165208;28;20055;-79
2024/03/25 01:17:38;;;;;;;11.32;3.42;;;;;;;4.09;100.00;99329.56;10149928;28;20139;-78
2024/03/25 01:22:39;;;;;;;23.20;4.13;;;;;;;3.95;100.00;99343.81;10162072;28;20127;-78
2024/03/25 01:27:40;;;;;;;13.27;4.35;;;;;;;4.11;100.00;99335.59;10155264;28;20516;-77
2024/03/25 01:32:41;;;;;;;29.13;4.65;;;;;;;3.77;100.00;99337.97;10133824;28;20168;-77
2024/03/25 01:37:42;;;;;;;16.33;3.55;;;;;;;3.80;100.00;99334.25;10156086;28;20052;-79
2024/03/25 01:42:55;;;;;;;16.20;2.72;;;;;;;3.69;100.00;99332.34;10155671;28;20134;-79
2024/03/25 01:47:57;;;;;;;13.98;3.85;;;;;;;4.09;100.00;99334.88;10143975;28;20206;-79
2024/03/25 01:52:59;;;;;;;16.27;3.60;;;;;;;3.75;100.00;99350.50;10135868;28;20111;-79
2024/03/25 01:58:00;;;;;;;23.88;4.63;;;;;;;3.60;100.00;99354.22;10153271;28;20211;-80
2024/03/25 02:03:01;;;;;;;16.35;4.10;;;;;;;3.65;100.00;99358.25;10148413;28;20146;-79
2024/03/25 02:08:03;;;;;;;13.50;3.95;;;;;;;3.78;100.00;99352.09;10154690;28;20055;-79
2024/03/25 02:13:05;;;;;;;19.95;4.05;;;;;;;3.88;100.00;99350.50;10146257;28;20052;-79
2024/03/25 02:18:05;;;;;;;20.40;4.55;;;;;;;3.88;100.00;99348.69;10143543;28;20090;-79
2024/03/25 02:23:10;;;;;;;42.88;5.72;;;;;;;3.75;100.00;99349.66;10167517;28;20059;-79
2024/03/25 02:28:10;;;;;;;22.88;5.70;;;;;;;3.65;100.00;99373.34;10159470;28;20130;-79
2024/03/25 02:33:11;;;;;;;20.73;4.03;;;;;;;3.95;100.00;99370.38;10129538;28;20096;-79
2024/03/25 02:38:14;;;;;;;18.45;4.63;;;;;;;4.08;100.00;99365.88;10199903;28;20086;-79
2024/03/25 02:43:15;;;;;;;23.73;4.20;;;;;;;4.06;100.00;99366.94;10168553;28;20138;-78
2024/03/25 02:48:15;;;;;;;14.68;3.92;;;;;;;3.73;100.00;99374.53;10153851;28;20051;-79
2024/03/25 02:53:16;;;;;;;20.67;4.10;;;;;;;3.65;100.00;99384.81;10142944;28;20178;-79
2024/03/25 02:58:17;;;;;;;17.70;4.00;;;;;;;3.97;100.00;99384.41;10149121;28;20044;-79
2024/03/25 03:03:17;;;;;;;18.92;3.80;;;;;;;3.92;100.00;99382.06;10207173;28;20048;-79
2024/03/25 03:08:18;;;;;;;18.15;3.60;;;;;;;4.11;100.00;99388.75;10184309;28;20116;-79
2024/03/25 03:13:19;;;;;;;13.48;3.45;;;;;;;4.09;100.00;99396.84;10198444;28;20055;-80
2024/03/25 03:18:20;;;;;;;19.13;5.28;;;;;;;4.07;100.00;99393.44;10194999;28;20223;-79
2024/03/25 03:23:20;;;;;;;20.77;4.30;;;;;;;4.14;100.00;99400.03;10198821;28;20107;-79
2024/03/25 03:28:21;;;;;;;19.75;4.53;;;;;;;4.06;100.00;99402.38;10241501;28;20196;-79
2024/03/25 03:33:22;;;;;;;16.73;4.88;;;;;;;4.10;100.00;99417.13;10203236;28;20056;-79
2024/03/25 03:38:23;;;;;;;20.67;5.18;;;;;;;4.13;100.00;99395.66;10181657;28;20060;-79
2024/03/25 03:43:23;;;;;;;17.83;4.35;;;;;;;4.01;100.00;99404.50;10203120;28;20051;-79
2024/03/25 03:48:24;;;;;;;21.33;4.78;;;;;;;3.90;100.00;99415.03;10198016;28;20050;-78
2024/03/25 03:53:25;;;;;;;27.20;4.95;;;;;;;3.80;100.00;99413.94;10210676;28;20048;-79
2024/03/25 03:58:26;;;;;;;25.58;4.65;;;;;;;3.55;100.00;99406.78;10231828;28;20047;-79
2024/03/25 04:03:27;;;;;;;30.73;6.13;;;;;;;3.69;100.00;99415.50;10183573;28;20066;-79
2024/03/25 04:08:28;;;;;;;22.67;3.95;;;;;;;3.81;100.00;99418.28;10180899;28;20165;-79
2024/03/25 04:13:28;;;;;;;23.92;5.00;;;;;;;3.58;100.00;99417.19;10185529;28;20075;-79
2024/03/25 04:18:30;;;;;;;21.98;4.63;;;;;;;3.91;100.00;99428.19;10174239;28;20063;-79
2024/03/25 04:23:31;;;;;;;28.42;5.25;;;;;;;3.92;100.00;99410.44;10200444;28;20087;-79
2024/03/25 04:28:32;;;;;;;13.98;3.75;;;;;;;3.87;100.00;99423.19;10191439;28;20047;-79
2024/03/25 04:33:32;;;;;;;16.60;5.03;;;;;;;3.89;100.00;99423.94;10184472;28;20139;-79
2024/03/25 04:38:33;;;;;;;24.38;5.25;;;;;;;3.81;100.00;99427.09;10198219;28;20048;-79
2024/03/25 04:43:34;;;;;;;26.70;6.03;;;;;;;3.76;100.00;99431.03;10198935;28;20053;-80
2024/03/25 04:48:35;;;;;;;24.13;4.50;;;;;;;3.81;100.00;99442.19;10190231;28;20047;-79
2024/03/25 04:53:36;;;;;;;24.27;4.50;;;;;;;3.52;100.00;99441.53;10188207;28;20544;-80
2024/03/25 04:58:37;;;;;;;21.52;4.93;;;;;;;4.22;100.00;99455.28;10195205;28;20058;-79
2024/03/25 05:03:37;;;;;;;19.30;4.80;;;;;;;3.77;100.00;99472.59;10201783;28;20111;-79
2024/03/25 05:08:38;;;;;;;23.55;4.70;;;;;;;3.76;100.00;99468.22;10183304;28;20075;-79
2024/03/25 05:13:39;;;;;;;15.02;3.95;;;;;;;4.31;100.00;99472.44;10175100;28;20091;-79
2024/03/25 05:18:40;;;;;;;25.35;4.93;;;;;;;4.04;100.00;99477.84;10197681;28;20055;-78
2024/03/25 05:23:40;;;;;;;22.48;5.00;;;;;;;4.14;100.00;99479.78;10200908;28;20086;-79
2024/03/25 05:28:42;;;;;;;22.15;4.22;;;;;;;4.09;100.00;99481.88;10201407;28;20141;-79
2024/03/25 05:33:43;;;;;;;18.83;4.25;;;;;;;4.22;100.00;99499.63;10207555;28;20062;-80
2024/03/25 05:38:43;;;;;;;20.17;4.22;;;;;;;4.06;100.00;99498.03;10179822;28;20055;-79
2024/03/25 05:43:44;;;;;;;23.45;4.70;;;;;;;4.42;100.00;99499.13;10183987;28;20075;-80
2024/03/25 05:48:45;;;;;;;22.80;5.97;;;;;;;3.95;100.00;99496.13;10200346;28;20795;-79
2024/03/25 05:53:46;;;;;;;26.27;6.78;;;;;;;4.40;100.00;99490.41;10203606;28;20059;-78
2024/03/25 05:58:46;;;;;;;23.70;4.10;;;;;;;4.08;100.00;99513.88;10234159;28;20051;-80
2024/03/25 06:03:47;;;;;;;25.95;5.45;;;;;;;3.88;100.00;99500.13;10215566;28;20055;-80
2024/03/25 06:08:50;;;;;;;21.27;4.88;;;;;;;4.09;100.00;99508.47;10202098;28;20061;-81
2024/03/25 06:13:51;;;;;;;25.63;5.72;;;;;;;4.36;100.00;99512.81;10207777;28;20075;-80
2024/03/25 06:18:52;;;;;;;21.07;4.17;;;;;;;4.53;100.00;99517.00;10196661;28;20051;-78
2024/03/25 06:23:53;;;;;;;20.23;5.10;;;;;;;4.29;100.00;99527.53;10211998;28;20055;-78
2024/03/25 06:28:54;;;;;;;26.48;4.50;;;;;;;4.48;100.00;99535.09;10213729;28;20051;-78
2024/03/25 06:39:18;;;;;;;15.30;3.58;;;;;;;4.57;100.00;99524.63;10206075;28;20687;-78
2024/03/25 06:44:19;;;;;;;23.23;4.90;;;;;;;4.43;100.00;99534.53;10203400;28;21201;-78
2024/03/25 06:49:19;;;;;;;24.83;4.70;;;;;;;4.65;100.00;99540.06;10233259;28;20051;-78
2024/03/25 06:54:20;;;;;;;14.43;4.00;;;;;;;4.38;100.00;99545.50;10221519;28;20090;-80
2024/03/25 06:59:21;;;;;;;20.20;4.78;;;;;;;4.84;99.53;99543.13;10214615;28;20047;-79
2024/03/25 07:04:22;;;;;;;17.92;4.13;;;;;;;4.54;99.92;99556.78;10202648;28;20072;-81
2024/03/25 07:09:24;;;;;;;21.00;5.38;;;;;;;4.13;100.00;99565.75;10192947;28;20110;-80
2024/03/25 07:14:25;;;;;;;22.80;4.03;;;;;;;4.18;100.00;99568.97;10211515;28;20467;-79
2024/03/25 07:19:25;;;;;;;21.77;4.65;;;;;;;4.30;100.00;99575.25;10204231;28;20134;-80
2024/03/25 07:24:26;;;;;;;23.58;5.15;;;;;;;4.88;98.63;99577.50;10208519;28;20475;-79
2024/03/25 07:29:27;;;;;;;24.67;5.72;;;;;;;4.85;97.95;99570.59;10198907;28;20059;-80
2024/03/25 07:34:28;;;;;;;18.27;4.60;;;;;;;4.78;98.40;99574.66;10199263;28;20129;-79
2024/03/25 07:39:29;;;;;;;23.85;5.85;;;;;;;4.87;97.50;99574.00;10203905;28;20119;-79
2024/03/25 07:44:30;;;;;;;13.65;5.00;;;;;;;5.22;94.89;99566.22;10228528;28;20067;-79
2024/03/25 07:49:33;;;;;;;24.48;5.60;;;;;;;5.17;94.59;99575.50;10237714;28;20047;-78
2024/03/25 07:54:36;;;;;;;20.13;5.90;;;;;;;5.95;91.49;99572.44;10199948;28;20146;-80
2024/03/25 07:59:37;;;;;;;25.30;6.65;;;;;;;6.02;89.95;99567.50;10190801;28;20055;-80
2024/03/25 08:04:38;;;;;;;16.10;5.07;;;;;;;6.14;87.36;99570.13;10200632;28;20050;-80
2024/03/25 08:09:38;;;;;;;24.10;5.15;;;;;;;5.48;91.34;99579.47;10181435;28;20109;-80
2024/03/25 08:20:25;;;;;;;21.45;5.68;;;;;;;5.79;89.40;99585.19;10697057;23;20552;-81
2024/03/25 08:25:25;;;;;;;27.20;6.03;;;;;;;5.87;85.75;99586.34;10273088;28;20074;-79
2024/03/25 08:30:26;;;;;;;19.58;4.78;;;;;;;5.94;86.52;99586.75;10217977;28;20067;-80
2024/03/25 08:35:27;;;;;;;20.88;5.60;;;;;;;5.22;90.73;99597.31;10242624;28;20040;-78
2024/03/25 08:40:28;;;;;;;20.17;5.22;;;;;;;5.84;89.27;99591.03;10216198;28;20031;-79
2024/03/25 08:45:29;;;;;;;15.68;4.50;;;;;;;5.99;84.17;99595.25;10183867;28;20577;-78
2024/03/25 08:50:29;;;;;;;13.13;4.13;;;;;;;6.42;81.87;99591.16;10204756;28;20056;-80
2024/03/25 08:55:30;;;;;;;21.25;5.05;;;;;;;6.63;82.75;99597.50;10205119;28;20051;-80
2024/03/25 09:00:31;;;;;;;13.35;3.35;;;;;;;6.20;82.37;99594.59;10200920;28;20091;-79
2024/03/25 09:05:33;;;;;;;19.38;4.32;;;;;;;6.55;79.76;99595.44;10216183;28;20048;-81
2024/03/25 09:15:53;;;;;;;13.90;3.30;;;;;;;8.01;71.52;99591.88;10223082;28;20618;-80
2024/03/25 09:20:55;;;;;;;16.35;3.75;;;;;;;7.11;72.16;99589.34;10221686;28;20051;-79
2024/03/25 09:25:56;;;;;;;12.47;3.27;;;;;;;7.63;70.76;99590.50;10238906;28;20146;-77
2024/03/25 09:30:57;;;;;;;18.35;3.30;;;;;;;7.64;69.13;99591.34;10231450;28;20039;-78
2024/03/25 09:35:58;;;;;;;15.40;3.50;;;;;;;8.09;68.93;99581.38;10222563;28;20054;-77
2024/03/25 09:40:59;;;;;;;18.13;4.33;;;;;;;8.69;64.02;99587.03;10218272;28;20134;-79
2024/03/25 09:46:01;;;;;;;21.05;4.72;;;;;;;7.33;71.97;99593.00;10221297;28;20309;-79
2024/03/25 09:51:02;;;;;;;19.38;4.22;;;;;;;7.61;68.97;99596.94;10202604;28;20043;-80
2024/03/25 09:56:04;;;;;;;16.33;3.88;;;;;;;8.32;65.32;99595.50;10216578;28;20051;-80
2024/03/25 10:01:04;;;;;;;14.02;2.60;;;;;;;8.48;64.82;99588.88;10191699;28;20177;-80
2024/03/25 10:06:08;;;;;;;12.57;2.75;;;;;;;8.59;63.95;99587.00;10235864;28;20086;-80
2024/03/25 10:11:08;;;;;;;12.75;2.88;;;;;;;7.50;71.66;99589.81;10211531;28;20070;-79
2024/03/25 10:16:09;;;;;;;16.05;2.60;;;;;;;7.17;68.79;99586.19;10201857;28;20587;-79
2024/03/25 10:21:10;;;;;;;17.55;2.20;;;;;;;7.00;73.67;99594.69;10190207;28;20043;-79
2024/03/25 10:26:25;;;;;;;11.18;3.13;;;;;;;6.18;84.01;99587.56;10200995;28;20911;-78
2024/03/25 10:31:26;;;;;;;11.13;3.67;;;;;;;6.25;92.25;99589.75;10202731;28;20081;-79
2024/03/25 10:36:28;;;;;;;15.60;4.03;;;;;;;6.27;88.26;99582.50;10212531;28;20044;-79
2024/03/25 10:41:30;;;;;;;11.17;3.80;;;;;;;7.59;90.01;99582.84;10204160;28;20051;-79
2024/03/25 10:46:31;;;;;;;19.27;4.57;;;;;;;8.94;73.74;99584.91;10203441;28;20311;-79
2024/03/25 10:51:32;;;;;;;16.35;6.05;;;;;;;8.35;77.76;99591.72;10197006;28;20055;-79
2024/03/25 10:56:33;;;;;;;8.30;2.83;;;;;;;6.69;85.68;99590.84;10199134;28;20048;-79
2024/03/25 11:01:35;;;;;;;5.70;2.30;;;;;;;6.45;82.02;99589.13;10206081;28;20350;-78
2024/03/25 11:06:36;;;;;;;7.70;1.80;;;;;;;7.27;76.38;99589.00;10218525;28;20057;-78
2024/03/25 11:11:38;;;;;;;6.75;2.63;;;;;;;8.33;73.48;99564.22;10207951;28;20050;-79
2024/03/25 11:16:38;;;;;;;9.18;1.90;;;;;;;9.15;67.73;99560.75;10181581;28;21145;-79
2024/03/25 11:21:39;;;;;;;15.30;2.58;;;;;;;11.06;60.91;99545.78;10203920;28;20669;-79
2024/03/25 11:26:41;;;;;;;7.15;1.83;;;;;;;10.14;59.87;99543.72;10209173;28;20728;-79
2024/03/25 11:31:43;;;;;;;4.25;1.30;;;;;;;11.71;53.72;99537.69;10204706;28;20051;-79
2024/03/25 11:36:44;;;;;;;6.13;1.17;;;;;;;11.96;51.26;99535.25;10223703;28;20178;-78
2024/03/25 11:41:45;;;;;;;3.20;1.45;;;;;;;11.24;53.01;99535.16;10248390;28;20043;-79
2024/03/25 11:46:46;;;;;;;5.00;1.63;;;;;;;12.16;52.98;99528.69;10216396;28;20066;-80
2024/03/25 11:51:46;;;;;;;7.95;2.35;;;;;;;11.58;52.25;99522.91;10196353;28;20627;-79
2024/03/25 11:56:47;;;;;;;6.90;2.28;;;;;;;9.36;56.07;99531.22;10229461;28;20466;-79
2024/03/25 12:01:48;;;;;;;8.82;2.38;;;;;;;9.39;57.36;99525.59;10197686;28;20852;-79
2024/03/25 12:06:49;;;;;;;13.45;2.92;;;;;;;9.56;57.72;99505.28;10187065;28;20095;-79
2024/03/25 12:11:50;;;;;;;6.65;2.10;;;;;;;9.48;55.55;99506.81;10210678;28;20043;-80
2024/03/25 12:16:54;;;;;;;7.83;2.57;;;;;;;9.25;57.53;99506.22;10210879;28;20175;-79
2024/03/25 12:22:01;;;;;;;8.73;3.03;;;;;;;12.09;49.32;99489.91;10195779;28;20058;-80
2024/03/25 12:27:03;;;;;;;6.25;2.70;;;;;;;11.39;47.73;99484.41;10206785;28;20047;-79
2024/03/25 12:32:03;;;;;;;7.10;2.17;;;;;;;13.26;45.71;99469.72;10187496;28;21580;-78
2024/03/25 12:37:04;;;;;;;13.32;2.30;;;;;;;13.89;43.30;99466.50;10202353;28;20130;-79
2024/03/25 12:42:06;;;;;;;6.10;2.03;;;;;;;13.39;45.14;99470.13;10202555;28;20430;-79
2024/03/25 12:47:07;;;;;;;10.02;2.20;;;;;;;11.59;45.57;99455.50;10202646;28;20047;-80
2024/03/25 12:52:08;;;;;;;8.68;2.15;;;;;;;13.02;43.06;99446.22;10193863;28;20048;-79
2024/03/25 12:57:09;;;;;;;6.25;1.95;;;;;;;14.43;41.54;99438.97;10211865;28;20059;-79
2024/03/25 13:02:12;;;;;;;7.75;2.05;;;;;;;15.28;37.75;99430.19;10185657;28;20051;-78
2024/03/25 13:07:13;;;;;;;6.18;2.30;;;;;;;14.97;37.81;99425.59;10203353;28;20493;-78
2024/03/25 13:12:14;;;;;;;5.95;2.00;;;;;;;13.65;38.61;99426.00;10187500;28;20079;-78
2024/03/25 13:17:14;;;;;;;9.07;1.80;;;;;;;16.36;35.73;99418.38;10175068;28;20099;-78
2024/03/25 13:22:15;;;;;;;6.72;1.60;;;;;;;15.60;35.87;99412.06;10203856;28;20059;-77
2024/03/25 13:27:16;;;;;;;4.22;1.70;;;;;;;17.84;32.91;99398.25;10198844;28;20082;-78
2024/03/25 13:32:17;;;;;;;8.88;1.95;;;;;;;16.76;34.12;99413.53;10209007;28;20573;-79
2024/03/25 13:37:18;;;;;;;7.13;2.03;;;;;;;19.09;33.61;99396.56;10204540;28;20058;-79
2024/03/25 13:42:19;;;;;;;5.93;2.08;;;;;;;20.70;31.05;99407.38;10204861;28;20047;-79
2024/03/25 13:47:20;;;;;;;6.05;1.60;;;;;;;19.85;31.57;99397.16;10229875;28;20103;-79
2024/03/25 13:52:21;;;;;;;6.93;2.05;;;;;;;19.39;31.55;99388.88;10202786;28;20059;-79
2024/03/25 13:57:22;;;;;;;7.93;2.75;;;;;;;18.16;32.25;99396.88;10199345;28;20103;-78
2024/03/25 14:02:23;;;;;;;9.57;2.37;;;;;;;19.27;31.93;99379.66;10181242;28;20051;-79
2024/03/25 14:07:24;;;;;;;7.78;2.30;;;;;;;18.18;32.71;99378.47;10198359;28;20059;-78
2024/03/25 14:12:25;;;;;;;6.38;1.67;;;;;;;13.35;37.12;99386.97;10213273;28;20055;-78
2024/03/25 14:17:26;;;;;;;4.47;1.30;;;;;;;11.73;39.37;99392.25;10209681;28;20170;-79
2024/03/25 14:22:26;;;;;;;6.85;1.52;;;;;;;11.30;41.79;99384.97;10215397;28;20473;-78
2024/03/25 14:27:27;;;;;;;10.57;1.65;;;;;;;12.80;41.08;99373.03;10194568;28;20047;-78
2024/03/25 14:32:28;;;;;;;6.38;1.70;;;;;;;14.25;37.92;99368.91;10254874;28;20066;-78
2024/03/25 14:37:28;;;;;;;3.20;1.50;;;;;;;14.27;36.77;99352.53;10192721;28;20130;-78
2024/03/25 14:42:30;;;;;;;6.97;1.73;;;;;;;14.10;37.19;99357.97;10191392;28;20055;-80
2024/03/25 14:47:31;;;;;;;7.33;1.90;;;;;;;13.22;38.32;99355.97;10211867;28;20134;-79
2024/03/25 14:52:32;;;;;;;6.85;1.75;;;;;;;13.61;37.16;99341.00;10219198;28;20052;-79
2024/03/25 14:57:32;;;;;;;5.38;1.70;;;;;;;13.44;37.08;99332.09;10213445;28;20070;-79
2024/03/25 15:02:33;;;;;;;9.93;1.73;;;;;;;13.77;38.15;99329.34;10196921;28;20044;-80
2024/03/25 15:07:34;;;;;;;9.30;2.03;;;;;;;13.86;37.08;99322.94;10193191;28;20541;-80
2024/03/25 15:12:34;;;;;;;6.32;1.73;;;;;;;14.20;36.98;99328.06;10250186;28;20581;-79
2024/03/25 15:17:35;;;;;;;9.07;2.33;;;;;;;14.55;35.91;99315.16;10254530;28;21001;-79
2024/03/25 15:22:38;;;;;;;7.15;2.00;;;;;;;15.16;34.81;99291.78;10228222;28;20055;-80
2024/03/25 15:27:38;;;;;;;;;;;;;;;15.88;33.92;99290.53;10204122;28;20054;-80
2024/03/25 15:32:39;;;;;;;8.00;1.75;;;;;;;14.77;35.08;99281.91;10203748;28;20393;-80
2024/03/25 15:37:40;;;;;;;6.35;1.63;;;;;;;14.07;35.44;99279.16;10230428;28;21700;-80
2024/03/25 15:42:41;;;;;;;3.42;1.30;;;;;;;14.35;36.17;99271.47;10227111;28;20052;-77
2024/03/25 15:47:42;;;;;;;5.57;1.50;;;;;;;13.81;35.82;99268.63;10224201;28;20142;-78
2024/03/25 15:52:43;;;;;;;4.03;1.17;;;;;;;14.56;35.50;99260.06;10209487;28;20495;-78
2024/03/25 15:57:44;;;;;;;7.43;1.90;;;;;;;14.81;35.09;99256.22;10225980;28;20057;-78
2024/03/25 16:02:48;;;;;;;5.40;1.83;;;;;;;14.64;34.63;99256.50;10225753;28;20094;-78
2024/03/25 16:07:48;;;;;;;5.38;1.42;;;;;;;14.37;35.78;99259.47;10228521;28;20924;-78
2024/03/25 16:12:49;;;;;;;5.70;1.42;;;;;;;14.44;35.89;99262.34;10220810;28;20062;-78
2024/03/25 16:17:50;;;;;;;7.80;1.70;;;;;;;14.28;36.11;99257.81;10199079;28;20716;-79
2024/03/25 16:22:51;;;;;;;5.95;2.20;;;;;;;13.30;36.36;99249.09;10200570;28;20051;-78
2024/03/25 16:27:52;;;;;;;5.65;1.58;;;;;;;12.12;37.28;99251.88;10190007;28;20047;-77
2024/03/25 16:32:53;;;;;;;7.40;2.40;;;;;;;11.57;39.40;99257.63;10213408;28;20047;-77
2024/03/25 16:37:54;;;;;;;7.80;2.10;;;;;;;11.14;41.94;99240.56;10205439;28;20051;-79
2024/03/25 16:42:54;;;;;;;6.03;1.92;;;;;;;10.77;42.83;99242.34;10188627;28;20130;-78
2024/03/25 16:47:55;;;;;;;10.07;1.83;;;;;;;10.59;43.72;99230.78;10189978;28;20086;-79
2024/03/25 16:52:57;;;;;;;7.55;1.70;;;;;;;10.51;43.84;99231.53;10212535;28;20130;-79
2024/03/25 16:57:58;;;;;;;6.63;1.63;;;;;;;10.38;43.70;99226.53;10216283;28;20107;-77
2024/03/25 17:02:59;;;;;;;7.05;1.45;;;;;;;10.69;44.21;99219.97;10224460;28;20039;-78
2024/03/25 17:08:00;;;;;;;8.93;3.25;;;;;;;10.78;44.55;99216.38;10220352;28;20100;-79
2024/03/25 17:13:01;;;;;;;3.08;1.80;;;;;;;10.29;45.22;99210.50;10207516;28;20141;-79
2024/03/25 17:18:07;;;;;;;10.20;1.80;;;;;;;9.90;46.81;99210.69;10199250;28;20055;-78
2024/03/25 17:23:08;;;;;;;6.82;1.90;;;;;;;9.74;46.80;99208.63;10194721;28;20043;-78
2024/03/25 17:28:09;;;;;;;4.72;2.25;;;;;;;9.66;47.37;99220.09;10191451;28;20841;-79
2024/03/25 17:33:10;;;;;;;8.80;3.40;;;;;;;9.43;47.95;99222.25;10212743;28;20074;-77
2024/03/25 17:38:11;;;;;;;6.47;3.30;;;;;;;9.20;48.73;99216.41;10216655;28;20141;-78
2024/03/25 17:43:12;;;;;;;14.77;8.13;;;;;;;9.00;49.19;99212.09;10248115;28;20035;-78
2024/03/25 17:48:13;;;;;;;8.80;5.10;;;;;;;8.82;49.78;99210.09;10215341;28;20083;-77
2024/03/25 17:53:13;;;;;;;10.65;4.45;;;;;;;8.69;50.36;99208.69;10223740;28;20055;-78
2024/03/25 17:58:14;;;;;;;9.43;3.22;;;;;;;8.55;50.64;99204.59;10230586;28;20043;-77
2024/03/25 18:03:18;;;;;;;11.02;5.55;;;;;;;8.42;51.28;99194.16;10235871;28;20060;-80
2024/03/25 18:08:18;;;;;;;10.77;4.10;;;;;;;8.30;51.35;99195.25;10220494;28;20106;-79
2024/03/25 18:13:19;;;;;;;7.72;3.97;;;;;;;8.17;52.00;99192.84;10211793;28;20114;-78
2024/03/25 18:18:21;;;;;;;14.38;7.18;;;;;;;8.06;52.07;99188.44;10226711;28;20047;-79
2024/03/25 18:23:22;;;;;;;17.80;11.60;;;;;;;7.98;51.65;99206.16;10188594;28;20205;-79
2024/03/25 18:28:23;;;;;;;8.35;5.50;;;;;;;7.86;51.49;99194.75;10197036;28;20210;-78
2024/03/25 18:33:24;;;;;;;9.30;5.18;;;;;;;7.81;51.73;99199.66;10208552;28;20169;-78
2024/03/25 18:38:24;;;;;;;12.80;5.43;;;;;;;7.67;52.27;99193.69;10215851;28;20565;-78
2024/03/25 18:43:25;;;;;;;10.57;4.35;;;;;;;7.57;52.55;99187.47;10203811;28;20043;-79
2024/03/25 18:48:26;;;;;;;10.15;3.63;;;;;;;7.41;53.16;99193.31;10225949;28;20680;-78
2024/03/25 18:53:27;;;;;;;9.38;3.97;;;;;;;7.34;54.06;99186.78;10226809;28;20051;-79
2024/03/25 18:58:28;;;;;;;10.50;3.60;;;;;;;7.30;53.93;99193.38;10206757;28;20460;-78
2024/03/25 19:03:28;;;;;;;5.70;3.20;;;;;;;7.20;54.59;99195.97;10225059;28;20043;-78
2024/03/25 19:08:29;;;;;;;10.00;4.07;;;;;;;7.15;55.22;99194.69;10229676;28;20506;-78
2024/03/25 19:13:30;;;;;;;15.63;4.95;;;;;;;7.11;55.65;99187.94;10225921;28;20514;-78
2024/03/25 19:18:32;;;;;;;14.18;4.70;;;;;;;7.01;56.00;99185.19;10231526;28;20142;-79
2024/03/25 19:23:33;;;;;;;11.73;4.35;;;;;;;6.91;56.37;99174.47;10218400;28;20181;-78
2024/03/25 19:28:34;;;;;;;11.02;4.38;;;;;;;6.77;57.01;99174.72;10199503;28;20055;-78
2024/03/25 19:33:34;;;;;;;10.85;4.30;;;;;;;6.64;57.02;99172.28;10217076;28;20070;-79
2024/03/25 19:38:35;;;;;;;8.05;5.00;;;;;;;6.56;56.69;99172.91;10189551;28;20051;-79
2024/03/25 19:43:36;;;;;;;10.68;4.18;;;;;;;6.59;56.89;99171.81;10229242;28;20054;-78
2024/03/25 19:48:38;;;;;;;7.63;4.10;;;;;;;6.53;57.14;99167.81;10218628;28;20075;-80
2024/03/25 19:53:38;;;;;;;9.10;4.63;;;;;;;6.50;57.82;99159.22;10213772;28;20075;-79
2024/03/25 19:58:39;;;;;;;10.07;4.70;;;;;;;6.46;58.20;99163.97;10223558;28;20054;-79
2024/03/25 20:03:40;;;;;;;9.80;5.40;;;;;;;6.51;58.14;99168.94;10189768;28;20050;-78
2024/03/25 20:08:40;;;;;;;9.82;5.10;;;;;;;6.47;57.76;99162.13;10232424;28;20051;-78
2024/03/25 20:13:41;;;;;;;15.98;5.97;;;;;;;6.37;57.87;99159.41;10237824;28;20059;-78
2024/03/25 20:18:42;;;;;;;9.82;5.20;;;;;;;6.33;58.04;99152.63;10258634;28;20067;-79
2024/03/25 20:23:43;;;;;;;15.63;7.90;;;;;;;6.22;57.90;99161.50;10222182;28;20044;-79
2024/03/25 20:28:45;;;;;;;12.95;5.00;;;;;;;6.16;58.01;99154.84;10205926;28;20134;-79
2024/03/25 20:33:45;;;;;;;11.17;4.93;;;;;;;6.03;59.12;99158.66;10166116;28;20052;-78
2024/03/25 20:38:46;;;;;;;16.33;4.57;;;;;;;5.95;60.21;99154.81;10215691;28;20061;-78
2024/03/25 20:43:47;;;;;;;13.10;4.85;;;;;;;5.86;61.27;99155.53;10187727;28;20466;-78
2024/03/25 20:48:49;;;;;;;12.13;6.20;;;;;;;5.82;61.92;99150.59;10204091;28;20069;-78
2024/03/25 20:53:49;;;;;;;10.90;5.55;;;;;;;5.75;62.62;99146.72;10190625;28;20138;-78
2024/03/25 20:58:50;;;;;;;12.68;5.55;;;;;;;5.60;63.31;99138.16;10233922;28;20074;-79
2024/03/25 21:03:52;;;;;;;14.88;5.85;;;;;;;5.53;63.54;99147.59;10209953;28;20059;-79
2024/03/25 21:08:53;;;;;;;14.60;5.93;;;;;;;5.48;63.40;99137.31;10205847;28;20126;-78
2024/03/25 21:13:53;;;;;;;9.02;4.53;;;;;;;5.51;63.42;99126.41;10219675;28;20067;-78
2024/03/25 21:18:54;;;;;;;12.45;4.88;;;;;;;5.52;63.11;99129.94;10224972;28;20105;-78
2024/03/25 21:23:55;;;;;;;8.00;4.75;;;;;;;5.53;63.09;99124.47;10222499;28;20082;-78
2024/03/25 21:28:56;;;;;;;14.85;4.30;;;;;;;5.46;63.32;99115.28;10220312;28;20135;-78
2024/03/25 21:33:57;;;;;;;13.43;4.70;;;;;;;5.40;63.47;99113.09;10220136;28;20586;-78
2024/03/25 21:38:59;;;;;;;12.32;4.50;;;;;;;5.31;63.24;99117.34;10214992;28;20047;-78
2024/03/25 21:44:04;;;;;;;11.52;4.68;;;;;;;5.33;63.24;99110.09;10188402;28;20050;-78
2024/03/25 21:49:05;;;;;;;10.00;3.90;;;;;;;5.38;63.27;99117.72;10234498;28;20071;-79
2024/03/25 21:54:06;;;;;;;9.10;4.57;;;;;;;5.35;63.37;99101.97;10224192;28;20066;-78
2024/03/25 21:59:07;;;;;;;10.40;3.97;;;;;;;5.35;63.24;99102.84;10227137;28;20051;-78
2024/03/25 22:04:07;;;;;;;8.45;4.18;;;;;;;5.36;62.98;99101.84;10210389;28;20059;-78
2024/03/25 22:09:08;;;;;;;11.57;3.85;;;;;;;5.33;63.48;99093.28;10201299;28;20087;-78
2024/03/25 22:14:09;;;;;;;7.55;4.22;;;;;;;5.25;64.00;99078.75;10190451;28;20051;-78
2024/03/25 22:19:09;;;;;;;11.70;4.10;;;;;;;5.17;64.08;99078.50;10209932;28;20043;-78
2024/03/25 22:24:10;;;;;;;9.50;3.92;;;;;;;5.22;63.97;99072.81;10228571;28;20051;-78
2024/03/25 22:29:12;;;;;;;9.88;4.35;;;;;;;5.19;64.09;99060.59;10235369;28;20114;-78
2024/03/25 22:34:13;;;;;;;10.88;4.28;;;;;;;5.17;64.39;99069.69;10232933;28;20079;-78
2024/03/25 22:39:14;;;;;;;10.90;4.93;;;;;;;5.11;64.77;99067.50;10272726;28;20047;-78
2024/03/25 22:44:15;;;;;;;10.55;4.47;;;;;;;5.06;65.03;99054.56;10253222;29;20143;-78
2024/03/25 22:49:15;;;;;;;10.65;4.25;;;;;;;4.91;65.53;99063.69;10254793;28;20050;-78
2024/03/25 22:54:16;;;;;;;6.60;4.25;;;;;;;4.81;65.56;99060.94;10259781;29;20050;-77
2024/03/25 22:59:17;;;;;;;7.32;3.97;;;;;;;4.82;65.37;99058.13;10259857;28;20110;-77
2024/03/25 23:04:18;;;;;;;11.27;4.53;;;;;;;4.79;65.10;99054.88;10257741;28;20514;-78
2024/03/25 23:09:18;;;;;;;9.80;4.30;;;;;;;4.74;65.04;99035.75;10251435;28;20032;-78
2024/03/25 23:14:19;;;;;;;14.07;4.72;;;;;;;4.77;64.98;99024.88;10260190;28;20410;-78
2024/03/25 23:19:20;;;;;;;13.38;6.20;;;;;;;4.74;64.99;99033.09;10252466;28;20039;-78
2024/03/25 23:24:21;;;;;;;16.00;7.43;;;;;;;4.63;65.97;99033.94;10252222;29;20055;-78
2024/03/25 23:29:22;;;;;;;10.18;5.50;;;;;;;4.56;66.70;99035.41;10259715;28;20098;-78
2024/03/25 23:34:23;;;;;;;13.73;5.88;;;;;;;4.48;67.24;99029.81;10267410;28;20699;-78